Latest Weather Observations for Holmes Reef

IDQ60801

Issued at 8:02 am EST Saturday 6 February 2016 (issued every 30 minutes, with the page automatically refreshed every 10 minutes)

About weather observations | Map of weather stations | Latest weather observations for QLD | Other Formats
Station Details ID: 200732 Name: HOLMES REEF Lat: -16.47 Lon: 147.87 Height: 1.9 m
Data from the previous 72 hours. | See also: Recent months at Holmes Reef
Date/Time
EST
Temp
°C
App
Temp
°C
Dew
Point
Rel
Hum
%
Delta-T
°C
Wind Press
QNH
hPa
Press
MSL
hPa
Rain
since 9 am
mm
Dir
 
Spd
km/h
Gust
km/h
Spd
kts
Gust
kts
06/08:00am 29.7 - - - - NNW 28 32 15 17 1004.1 - -
06/07:30am 29.6 - - - - NNW 28 32 15 17 1003.9 - -
06/07:15am 29.6 - - - - NNW 28 - 15 - - 1003.4 -
06/07:00am 29.6 - - - - NNW 28 33 15 18 1003.7 - -
06/06:30am 29.7 - - - - NNW 30 35 16 19 1003.2 - -
06/06:15am 29.7 - - - - NNW 28 - 15 - - 1002.8 -
06/06:00am 29.7 - - - - NNW 30 35 16 19 1002.9 - -
06/05:30am 28.7 - - - - NW 32 39 17 21 1002.7 - -
06/05:15am 29.6 - - - - NNW 32 - 17 - - 1002.3 -
06/05:00am 29.6 - - - - N 30 33 16 18 1002.3 - -
06/04:30am 29.6 - - - - N 35 39 19 21 1001.9 - -
06/04:15am 29.6 - - - - N 33 - 18 - - 1001.5 -
06/04:00am 29.6 - - - - N 32 35 17 19 1001.9 - -
06/03:30am 29.5 - - - - N 32 37 17 20 1002.0 - -
06/03:15am 29.5 - - - - N 33 - 18 - - 1001.4 -
06/03:04am 29.5 - - - - N 33 35 18 19 1001.7 - -
06/03:00am 29.5 - - - - N 2 6 1 3 1001.7 - -
06/02:30am 29.5 - - - - N 2 6 1 3 1001.5 - -
06/02:15am 29.6 - - - - N 4 - 2 - - 1001.4 -
06/02:00am 29.5 - - - - N 2 6 1 3 1001.9 - -
06/01:30am 29.6 - - - - N 4 7 2 4 1002.0 - -
06/01:15am 29.5 - - - - N 2 - 1 - - 1001.8 -
06/01:00am 29.7 - - - - N 2 6 1 3 1002.3 - -
06/12:30am 29.8 - - - - N 2 6 1 3 1003.1 - -
06/12:15am 29.7 - - - - N 2 - 1 - - 1003.2 -
06/12:00am 29.8 - - - - N 2 6 1 3 1003.9 - -
 
Date/Time
EST
Temp
°C
App
Temp
°C
Dew
Point
Rel
Hum
%
Delta-T
°C
Wind Press
QNH
hPa
Press
MSL
hPa
Rain
since 9 am
mm
Dir
 
Spd
km/h
Gust
km/h
Spd
kts
Gust
kts
05/11:30pm 29.7 - - - - N 2 6 1 3 1004.2 - -
05/11:15pm 29.9 - - - - N 2 - 1 - - 1004.2 -
05/11:00pm 29.8 - - - - N 4 6 2 3 1004.8 - -
05/10:30pm 29.8 - - - - NNW 2 6 1 3 1005.0 - -
05/10:15pm 29.9 - - - - NNW 2 - 1 - - 1004.5 -
05/10:00pm 29.8 - - - - NNW 2 6 1 3 1004.8 - -
05/09:30pm 29.8 - - - - N 4 6 2 3 1004.6 - -
05/09:15pm 29.7 - - - - N 4 - 2 - - 1004.3 -
05/09:00pm 29.8 - - - - N 4 7 2 4 1004.4 - -
05/08:30pm 29.8 - - - - N 4 6 2 3 1004.1 - -
05/08:15pm 29.8 - - - - NNW 4 - 2 - - 1003.9 -
05/08:00pm 29.8 - - - - N 4 6 2 3 1003.9 - -
05/07:30pm 29.8 - - - - N 2 6 1 3 1003.2 - -
05/07:15pm 29.9 - - - - N 4 - 2 - - 1002.8 -
05/07:00pm 29.8 - - - - N 2 6 1 3 1002.9 - -
05/06:30pm 30.0 - - - - N 4 35 2 19 1002.5 - -
05/06:15pm 29.9 - - - - N 30 - 16 - - 1002.1 -
05/06:00pm 30.0 - - - - N 32 35 17 19 1002.2 - -
05/05:30pm 30.0 - - - - NNW 32 35 17 19 1002.2 - -
05/05:15pm 29.9 - - - - NNW 30 - 16 - - 1001.9 -
05/05:00pm 29.9 - - - - NNW 30 33 16 18 1002.3 - -
05/04:30pm 29.8 - - - - NNW 26 30 14 16 1002.2 - -
05/04:15pm 29.9 - - - - NNW 26 - 14 - - 1001.8 -
05/04:00pm 29.9 - - - - NNW 28 30 15 16 1001.9 - -
05/03:30pm 30.1 - - - - NNW 30 32 16 17 1002.0 - -
05/03:15pm 29.8 - - - - NNW 28 - 15 - - 1002.0 -
05/03:00pm 30.0 - - - - NW 28 30 15 16 1002.3 - -
05/02:30pm 30.2 - - - - NNW 28 30 15 16 1002.4 - -
05/02:15pm 29.8 - - - - NNW 26 - 14 - - 1002.2 -
05/02:00pm 29.8 - - - - NNW 26 30 14 16 1002.6 - -
05/01:30pm 29.9 - - - - NNW 24 26 13 14 1003.2 - -
05/01:15pm 30.2 - - - - NW 24 - 13 - - 1003.1 -
05/01:00pm 30.0 - - - - NW 24 28 13 15 1003.5 - -
05/12:30pm 30.1 - - - - NNW 26 30 14 16 1003.7 - -
05/12:15pm 30.2 - - - - NNW 28 - 15 - - 1003.6 -
05/12:00pm 30.2 - - - - NW 28 33 15 18 1004.0 - -
05/11:30am 29.9 - - - - NW 30 35 16 19 1004.3 - -
05/11:15am 30.1 - - - - NW 30 - 16 - - 1004.1 -
05/11:00am 30.2 - - - - NW 32 37 17 20 1004.6 - -
05/10:30am 29.9 - - - - NW 32 35 17 19 1004.9 - -
05/10:15am 30.1 - - - - NW 30 - 16 - - 1004.6 -
05/10:00am 30.0 - - - - NW 32 35 17 19 1004.9 - -
05/09:30am 30.0 - - - - NW 30 33 16 18 1004.7 - -
05/09:15am 30.0 - - - - NW 30 - 16 - - 1004.4 -
05/09:00am 29.9 - - - - NW 30 35 16 19 1004.8 - -
05/08:30am 29.9 - - - - NW 30 35 16 19 1004.8 - -
05/08:15am 29.8 - - - - NW 28 - 15 - - 1004.3 -
05/08:00am 29.8 - - - - NW 28 33 15 18 1004.4 - -
05/07:30am 29.8 - - - - NW 30 37 16 20 1004.2 - -
05/07:15am 29.7 - - - - NW 30 - 16 - - 1003.7 -
05/07:00am 29.9 - - - - NW 33 41 18 22 1003.9 - -
05/06:30am 29.9 - - - - NW 35 43 19 23 1003.5 - -
05/06:15am 29.7 - - - - NW 35 - 19 - - 1002.8 -
05/06:00am 29.7 - - - - NNW 37 41 20 22 1002.9 - -
05/05:30am 29.8 - - - - NNW 33 37 18 20 1002.9 - -
05/05:15am 29.8 - - - - NNW 33 - 18 - - 1002.6 -
05/05:00am 29.6 - - - - NNW 33 35 18 19 1002.7 - -
05/04:30am 29.6 - - - - NNW 32 35 17 19 1002.4 - -
05/04:15am 29.7 - - - - NNW 32 - 17 - - 1002.1 -
05/04:00am 29.7 - - - - NNW 35 39 19 21 1002.3 - -
05/03:30am 29.7 - - - - NNW 33 39 18 21 1002.2 - -
05/03:15am 29.7 - - - - NNW 33 - 18 - - 1001.9 -
05/03:00am 29.8 - - - - NNW 35 41 19 22 1002.3 - -
05/02:30am 29.6 - - - - NNW 33 37 18 20 1002.9 - -
05/02:15am 29.7 - - - - NNW 33 - 18 - - 1002.7 -
05/02:00am 29.7 - - - - NNW 32 37 17 20 1003.2 - -
05/01:52am 29.7 - - - - NNW 32 33 17 18 1003.1 - -
05/01:30am 29.5 - - - - NNW 2 6 1 3 1003.1 - -
05/01:15am 29.6 - - - - NNW 2 - 1 - - 1002.9 -
05/01:00am 29.6 - - - - NNW 4 6 2 3 1003.5 - -
05/12:30am 29.7 - - - - NNW 4 6 2 3 1004.0 - -
05/12:15am 29.6 - - - - NNW 4 - 2 - - 1003.9 -
05/12:00am 29.6 - - - - NNW 4 7 2 4 1004.2 - -
 
Date/Time
EST
Temp
°C
App
Temp
°C
Dew
Point
Rel
Hum
%
Delta-T
°C
Wind Press
QNH
hPa
Press
MSL
hPa
Rain
since 9 am
mm
Dir
 
Spd
km/h
Gust
km/h
Spd
kts
Gust
kts
04/11:30pm 29.8 - - - - NNW 4 6 2 3 1004.6 - -
04/11:15pm 29.8 - - - - NNW 4 - 2 - - 1004.4 -
04/11:00pm 29.9 - - - - N 2 6 1 3 1004.8 - -
04/10:30pm 29.9 - - - - NNW 2 6 1 3 1005.3 - -
04/10:15pm 30.0 - - - - NNW 4 - 2 - - 1005.2 -
04/10:00pm 29.8 - - - - N 2 6 1 3 1005.5 - -
04/09:30pm 29.9 - - - - NNW 4 6 2 3 1005.3 - -
04/09:15pm 29.9 - - - - NNW 4 - 2 - - 1004.8 -
04/09:00pm 29.8 - - - - N 4 6 2 3 1004.9 - -
04/08:30pm 29.7 - - - - N 2 6 1 3 1004.8 - -
04/08:15pm 29.8 - - - - NNW 4 - 2 - - 1004.4 -
04/08:00pm 29.8 - - - - NNW 4 6 2 3 1004.6 - -
04/07:30pm 29.9 - - - - NNW 4 6 2 3 1004.4 - -
04/07:15pm 29.8 - - - - NNW 4 - 2 - - 1004.0 -
04/07:00pm 29.9 - - - - NNW 4 6 2 3 1004.2 - -
04/06:30pm 29.8 - - - - NNW 4 6 2 3 1003.8 - -
04/06:15pm 29.9 - - - - NW 2 - 1 - - 1003.4 -
04/06:00pm 29.9 - - - - NW 20 28 11 15 1003.7 - -
04/05:30pm 30.0 - - - - NW 22 26 12 14 1003.6 - -
04/05:15pm 29.9 - - - - NW 22 - 12 - - 1003.2 -
04/05:00pm 29.9 - - - - NW 24 28 13 15 1003.5 - -
04/04:30pm 30.0 - - - - NNW 22 28 12 15 1003.3 - -
04/04:15pm 29.9 - - - - NW 22 - 12 - - 1003.1 -
04/04:00pm 30.0 - - - - NW 24 26 13 14 1003.4 - -
04/03:30pm 29.9 - - - - NW 24 28 13 15 1003.6 - -
04/03:15pm 29.9 - - - - NW 24 - 13 - - 1003.4 -
04/03:00pm 29.9 - - - - NNW 26 30 14 16 1003.8 - -
04/02:30pm 29.9 - - - - NW 28 32 15 17 1003.9 - -
04/02:15pm 30.0 - - - - NW 26 - 14 - - 1003.8 -
04/02:00pm 29.8 - - - - NNW 28 32 15 17 1004.3 - -
04/01:30pm 29.8 - - - - NNW 28 33 15 18 1004.8 - -
04/01:15pm 29.5 - - - - NNW 26 - 14 - - 1004.9 -
04/01:00pm 29.3 - - - - NNW 24 30 13 16 1005.3 - -
04/12:30pm 28.2 - - - - NNW 22 26 12 14 1005.7 - -
04/12:15pm 28.9 - - - - WNW 26 - 14 - - 1005.6 -
04/12:00pm 29.2 - - - - NW 32 37 17 20 1005.9 - -
04/11:30am 29.6 - - - - NNW 28 32 15 17 1006.0 - -
04/11:15am 29.6 - - - - NNW 28 - 15 - - 1005.8 -
04/11:00am 29.5 - - - - NNW 28 32 15 17 1006.1 - -
04/10:30am 29.5 - - - - NNW 26 30 14 16 1006.2 - -
04/10:15am 29.5 - - - - NNW 26 - 14 - - 1006.1 -
04/10:00am 29.5 - - - - N 24 28 13 15 1006.6 - -
04/09:30am 29.7 - - - - NNW 24 28 13 15 1006.5 - -
04/09:15am 29.7 - - - - N 26 - 14 - - 1006.0 -
04/09:00am 29.8 - - - - NNW 26 30 14 16 1006.3 - -
04/08:30am 29.6 - - - - NNW 30 32 16 17 1006.3 - -
04/08:15am 29.9 - - - - NNW 30 - 16 - - 1005.8 -
04/08:00am 29.8 - - - - NNW 28 32 15 17 1006.1 - -
04/07:30am 29.8 - - - - NNW 28 32 15 17 1006.4 - -
04/07:15am 29.8 - - - - NNW 30 - 16 - - 1006.1 -
04/07:00am 29.7 - - - - NNW 30 35 16 19 1006.3 - -
04/06:30am 29.8 - - - - NNW 32 35 17 19 1006.4 - -
04/06:15am 29.6 - - - - NNW 30 - 16 - - 1006.0 -
04/06:00am 29.7 - - - - NNW 32 35 17 19 1006.2 - -
04/05:36am 29.6 - - - - NNW 33 35 18 19 1006.0 - -
04/05:30am 29.6 - - - - NNW 4 6 2 3 1006.0 - -
04/05:15am 29.6 - - - - NNW 2 - 1 - - 1005.7 -
04/05:00am 29.6 - - - - NNW 2 6 1 3 1005.9 - -
04/04:30am 29.6 - - - - NNW 2 6 1 3 1005.5 - -
04/04:15am 29.6 - - - - NNW 2 - 1 - - 1005.2 -
04/04:00am 29.5 - - - - N 2 6 1 3 1005.4 - -
04/03:30am 29.4 - - - - N 2 6 1 3 1005.0 - -
04/03:15am 29.5 - - - - N 2 - 1 - - 1004.6 -
04/03:00am 29.6 - - - - N 2 4 1 2 1005.0 - -
04/02:30am 29.5 - - - - N 2 6 1 3 1005.2 - -
04/02:15am 29.6 - - - - N 2 - 1 - - 1004.9 -
04/02:00am 29.6 - - - - N 2 6 1 3 1005.2 - -
04/01:30am 29.6 - - - - N 2 6 1 3 1005.6 - -
04/01:15am 29.6 - - - - NNW 2 - 1 - - 1005.6 -
04/01:00am 29.7 - - - - N 2 4 1 2 1006.1 - -
04/12:30am 29.7 - - - - CALM 0 6 0 3 1006.7 - -
04/12:15am 29.5 - - - - N 2 - 1 - - 1006.5 -
04/12:00am 29.6 - - - - NNW 2 6 1 3 1007.0 - -
 
Date/Time
EST
Temp
°C
App
Temp
°C
Dew
Point
Rel
Hum
%
Delta-T
°C
Wind Press
QNH
hPa
Press
MSL
hPa
Rain
since 9 am
mm
Dir
 
Spd
km/h
Gust
km/h
Spd
kts
Gust
kts
03/11:30pm 29.7 - - - - CALM 0 4 0 2 1007.3 - -
03/11:15pm 29.7 - - - - N 2 - 1 - - 1007.1 -
03/11:00pm 29.6 - - - - N 2 6 1 3 1007.5 - -
03/10:30pm 29.6 - - - - CALM 0 4 0 2 1007.6 - -
03/10:15pm 29.7 - - - - CALM 0 - 0 - - 1007.0 -
03/10:00pm 29.7 - - - - N 2 6 1 3 1007.1 - -
03/09:30pm 29.7 - - - - NNW 2 6 1 3 1006.8 - -
03/09:15pm 29.7 - - - - NNW 2 - 1 - - 1006.2 -
03/09:00pm 29.8 - - - - NNW 2 6 1 3 1006.6 - -
03/08:30pm 29.8 - - - - NNW 2 4 1 2 1006.8 - -
03/08:15pm 29.8 - - - - NNW 2 - 1 - - 1006.4 -
03/08:00pm 29.9 - - - - NNW 2 6 1 3 1006.6 - -
03/07:30pm 29.7 - - - - NNW 2 6 1 3 1006.1 - -
03/07:15pm 29.7 - - - - NNW 2 - 1 - - 1005.7 -
03/07:00pm 29.8 - - - - NNW 2 6 1 3 1005.8 - -
03/06:30pm 29.9 - - - - NNW 28 32 15 17 1005.4 - -
03/06:15pm 29.9 - - - - NNW 26 - 14 - - 1005.2 -
03/06:00pm 30.1 - - - - NNW 24 28 13 15 1005.5 - -
03/05:30pm 30.2 - - - - NNW 24 28 13 15 1005.0 - -
03/05:15pm 30.0 - - - - NNW 26 - 14 - - 1004.6 -
03/05:00pm 30.0 - - - - NNW 28 32 15 17 1005.0 - -
03/04:30pm 30.0 - - - - NW 28 30 15 16 1005.2 - -
03/04:15pm 29.9 - - - - NW 26 - 14 - - 1005.0 -
03/04:00pm 29.9 - - - - NNW 28 32 15 17 1005.2 - -
03/03:30pm 29.9 - - - - NW 30 33 16 18 1005.5 - -
03/03:15pm 30.0 - - - - NW 30 - 16 - - 1005.3 -
03/03:00pm 29.8 - - - - NW 30 35 16 19 1005.6 - -
03/02:30pm 29.6 - - - - NNW 28 32 15 17 1005.5 - -
03/02:15pm 29.7 - - - - NNW 30 - 16 - - 1005.2 -
03/02:00pm 29.6 - - - - NNW 28 32 15 17 1005.7 - -
03/01:30pm 29.5 - - - - NNW 28 33 15 18 1006.2 - -
03/01:15pm 29.8 - - - - NNW 28 - 15 - - 1006.2 -
03/01:00pm 29.7 - - - - NNW 28 32 15 17 1006.7 - -
03/12:30pm 29.8 - - - - NNW 28 32 15 17 1007.2 - -
03/12:15pm 29.7 - - - - NNW 26 - 14 - - 1007.2 -
03/12:00pm 29.6 - - - - NNW 24 30 13 16 1007.7 - -
03/11:30am 29.3 - - - - NW 30 39 16 21 1008.1 - -
03/11:15am 29.9 - - - - NNW 28 - 15 - - 1008.0 -
03/11:00am 29.8 - - - - NNW 26 30 14 16 1008.3 - -
03/10:30am 29.7 - - - - NNW 28 30 15 16 1008.3 - -
03/10:15am 29.7 - - - - NNW 26 - 14 - - 1008.2 -
03/10:00am 29.8 - - - - NNW 28 32 15 17 1008.7 - -
03/09:30am 29.8 - - - - NNW 26 30 14 16 1009.0 - -
03/09:15am 29.7 - - - - NNW 26 - 14 - - 1008.5 -
03/09:00am 29.8 - - - - NNW 26 30 14 16 1009.0 - -
03/08:30am 29.7 - - - - NNW 28 30 15 16 1009.0 - -
03/08:15am 29.8 - - - - NNW 28 - 15 - - 1008.6 -

Other Formats:

Comma delimited format used in spreadsheet applications
http://www.bom.gov.au/fwo/IDQ60801/IDQ60801.94289.axf

JavaScript Object Notation format (JSON) in row-major order
http://www.bom.gov.au/fwo/IDQ60801/IDQ60801.94289.json